sensor_id;sensor_type;location;lat;lon;timestamp;P1;durP1;ratioP1;P2;durP2;ratioP2
2031;SDS011;27625;50.422;7.944;2023-04-15T00:02:40;13.33;;;7.03;;
2031;SDS011;27625;50.422;7.944;2023-04-15T00:05:08;7.70;;;5.83;;
2031;SDS011;27625;50.422;7.944;2023-04-15T00:07:35;8.53;;;5.93;;
2031;SDS011;27625;50.422;7.944;2023-04-15T00:10:02;11.97;;;5.43;;
2031;SDS011;27625;50.422;7.944;2023-04-15T00:12:30;14.60;;;7.37;;
2031;SDS011;27625;50.422;7.944;2023-04-15T00:14:58;9.90;;;7.37;;
2031;SDS011;27625;50.422;7.944;2023-04-15T00:17:25;8.63;;;5.97;;
2031;SDS011;27625;50.422;7.944;2023-04-15T00:19:53;10.47;;;5.20;;
2031;SDS011;27625;50.422;7.944;2023-04-15T00:22:20;13.43;;;5.37;;
2031;SDS011;27625;50.422;7.944;2023-04-15T00:24:48;9.27;;;5.70;;
2031;SDS011;27625;50.422;7.944;2023-04-15T00:27:14;8.53;;;5.57;;
2031;SDS011;27625;50.422;7.944;2023-04-15T00:29:41;10.60;;;5.23;;
2031;SDS011;27625;50.422;7.944;2023-04-15T00:32:08;12.90;;;5.47;;
2031;SDS011;27625;50.422;7.944;2023-04-15T00:34:35;10.90;;;5.67;;
2031;SDS011;27625;50.422;7.944;2023-04-15T00:37:03;10.83;;;5.60;;
2031;SDS011;27625;50.422;7.944;2023-04-15T00:39:30;9.60;;;5.50;;
2031;SDS011;27625;50.422;7.944;2023-04-15T00:41:56;10.93;;;5.27;;
2031;SDS011;27625;50.422;7.944;2023-04-15T00:44:23;11.83;;;5.33;;
2031;SDS011;27625;50.422;7.944;2023-04-15T00:46:50;9.73;;;5.03;;
2031;SDS011;27625;50.422;7.944;2023-04-15T00:49:17;9.33;;;5.23;;
2031;SDS011;27625;50.422;7.944;2023-04-15T00:51:44;13.47;;;6.40;;
2031;SDS011;27625;50.422;7.944;2023-04-15T00:54:12;17.17;;;5.93;;
2031;SDS011;27625;50.422;7.944;2023-04-15T00:56:39;8.80;;;5.70;;
2031;SDS011;27625;50.422;7.944;2023-04-15T00:59:06;8.23;;;5.47;;
2031;SDS011;27625;50.422;7.944;2023-04-15T01:01:33;11.83;;;6.60;;
2031;SDS011;27625;50.422;7.944;2023-04-15T01:04:02;9.43;;;6.30;;
2031;SDS011;27625;50.422;7.944;2023-04-15T01:06:32;9.97;;;6.50;;
2031;SDS011;27625;50.422;7.944;2023-04-15T01:09:00;12.73;;;6.93;;
2031;SDS011;27625;50.422;7.944;2023-04-15T01:11:28;10.43;;;7.07;;
2031;SDS011;27625;50.422;7.944;2023-04-15T01:13:57;12.60;;;6.97;;
2031;SDS011;27625;50.422;7.944;2023-04-15T01:16:24;9.50;;;6.97;;
2031;SDS011;27625;50.422;7.944;2023-04-15T01:18:51;10.27;;;7.40;;
2031;SDS011;27625;50.422;7.944;2023-04-15T01:21:18;11.87;;;7.30;;
2031;SDS011;27625;50.422;7.944;2023-04-15T01:23:49;9.30;;;6.50;;
2031;SDS011;27625;50.422;7.944;2023-04-15T01:26:17;13.27;;;6.73;;
2031;SDS011;27625;50.422;7.944;2023-04-15T01:28:45;9.30;;;6.63;;
2031;SDS011;27625;50.422;7.944;2023-04-15T01:31:13;9.07;;;7.10;;
2031;SDS011;27625;50.422;7.944;2023-04-15T01:33:41;10.40;;;7.00;;
2031;SDS011;27625;50.422;7.944;2023-04-15T01:36:08;9.10;;;6.53;;
2031;SDS011;27625;50.422;7.944;2023-04-15T01:38:35;9.23;;;6.23;;
2031;SDS011;27625;50.422;7.944;2023-04-15T01:41:02;7.70;;;6.03;;
2031;SDS011;27625;50.422;7.944;2023-04-15T01:43:33;14.60;;;6.93;;
2031;SDS011;27625;50.422;7.944;2023-04-15T01:46:00;15.07;;;7.17;;
2031;SDS011;27625;50.422;7.944;2023-04-15T01:48:28;8.00;;;6.00;;
2031;SDS011;27625;50.422;7.944;2023-04-15T01:53:25;7.93;;;6.27;;
2031;SDS011;27625;50.422;7.944;2023-04-15T01:55:52;7.60;;;5.90;;
2031;SDS011;27625;50.422;7.944;2023-04-15T01:58:19;10.93;;;6.00;;
2031;SDS011;27625;50.422;7.944;2023-04-15T02:00:48;11.77;;;6.90;;
2031;SDS011;27625;50.422;7.944;2023-04-15T02:03:14;8.37;;;6.23;;
2031;SDS011;27625;50.422;7.944;2023-04-15T02:05:42;9.40;;;5.40;;
2031;SDS011;27625;50.422;7.944;2023-04-15T02:08:10;9.63;;;5.90;;
2031;SDS011;27625;50.422;7.944;2023-04-15T02:10:39;8.20;;;5.87;;
2031;SDS011;27625;50.422;7.944;2023-04-15T02:13:06;10.07;;;6.40;;
2031;SDS011;27625;50.422;7.944;2023-04-15T02:15:33;9.30;;;5.20;;
2031;SDS011;27625;50.422;7.944;2023-04-15T02:18:01;7.13;;;5.00;;
2031;SDS011;27625;50.422;7.944;2023-04-15T02:20:28;11.03;;;5.13;;
2031;SDS011;27625;50.422;7.944;2023-04-15T02:22:57;7.07;;;4.93;;
2031;SDS011;27625;50.422;7.944;2023-04-15T02:25:24;9.30;;;5.37;;
2031;SDS011;27625;50.422;7.944;2023-04-15T02:27:52;8.77;;;5.40;;
2031;SDS011;27625;50.422;7.944;2023-04-15T02:30:20;9.80;;;5.27;;
2031;SDS011;27625;50.422;7.944;2023-04-15T02:32:48;8.60;;;5.00;;
2031;SDS011;27625;50.422;7.944;2023-04-15T02:35:16;11.70;;;5.13;;
2031;SDS011;27625;50.422;7.944;2023-04-15T02:37:44;7.30;;;5.23;;
2031;SDS011;27625;50.422;7.944;2023-04-15T02:40:11;10.20;;;5.80;;
2031;SDS011;27625;50.422;7.944;2023-04-15T02:42:38;7.80;;;5.07;;
2031;SDS011;27625;50.422;7.944;2023-04-15T02:45:07;7.70;;;5.03;;
2031;SDS011;27625;50.422;7.944;2023-04-15T02:47:38;8.70;;;5.33;;
2031;SDS011;27625;50.422;7.944;2023-04-15T02:50:09;9.00;;;5.23;;
2031;SDS011;27625;50.422;7.944;2023-04-15T02:52:41;6.83;;;4.83;;
2031;SDS011;27625;50.422;7.944;2023-04-15T02:55:09;7.30;;;5.23;;
2031;SDS011;27625;50.422;7.944;2023-04-15T02:57:36;9.80;;;5.30;;
2031;SDS011;27625;50.422;7.944;2023-04-15T03:00:06;7.90;;;5.47;;
2031;SDS011;27625;50.422;7.944;2023-04-15T03:02:38;8.67;;;5.83;;
2031;SDS011;27625;50.422;7.944;2023-04-15T03:05:09;8.13;;;4.97;;
2031;SDS011;27625;50.422;7.944;2023-04-15T03:07:41;8.37;;;4.93;;
2031;SDS011;27625;50.422;7.944;2023-04-15T03:10:08;8.37;;;5.80;;
2031;SDS011;27625;50.422;7.944;2023-04-15T03:12:36;7.93;;;5.60;;
2031;SDS011;27625;50.422;7.944;2023-04-15T03:15:04;8.77;;;5.67;;
2031;SDS011;27625;50.422;7.944;2023-04-15T03:17:36;12.40;;;6.13;;
2031;SDS011;27625;50.422;7.944;2023-04-15T03:20:03;8.93;;;5.90;;
2031;SDS011;27625;50.422;7.944;2023-04-15T03:22:31;9.50;;;6.40;;
2031;SDS011;27625;50.422;7.944;2023-04-15T03:24:59;9.43;;;6.03;;
2031;SDS011;27625;50.422;7.944;2023-04-15T03:27:27;12.73;;;5.40;;
2031;SDS011;27625;50.422;7.944;2023-04-15T03:29:58;10.03;;;6.07;;
2031;SDS011;27625;50.422;7.944;2023-04-15T03:32:27;6.80;;;5.70;;
2031;SDS011;27625;50.422;7.944;2023-04-15T03:34:53;7.87;;;5.60;;
2031;SDS011;27625;50.422;7.944;2023-04-15T03:37:20;9.83;;;5.77;;
2031;SDS011;27625;50.422;7.944;2023-04-15T03:39:47;7.80;;;6.03;;
2031;SDS011;27625;50.422;7.944;2023-04-15T03:42:15;7.50;;;5.60;;
2031;SDS011;27625;50.422;7.944;2023-04-15T03:44:42;9.80;;;6.33;;
2031;SDS011;27625;50.422;7.944;2023-04-15T03:47:09;8.70;;;5.90;;
2031;SDS011;27625;50.422;7.944;2023-04-15T03:49:36;9.57;;;5.70;;
2031;SDS011;27625;50.422;7.944;2023-04-15T03:52:05;9.97;;;6.40;;
2031;SDS011;27625;50.422;7.944;2023-04-15T03:54:32;10.37;;;5.97;;
2031;SDS011;27625;50.422;7.944;2023-04-15T03:56:59;13.27;;;8.63;;
2031;SDS011;27625;50.422;7.944;2023-04-15T03:59:27;14.47;;;8.33;;
2031;SDS011;27625;50.422;7.944;2023-04-15T04:01:56;12.33;;;7.90;;
2031;SDS011;27625;50.422;7.944;2023-04-15T04:04:29;8.97;;;6.97;;
2031;SDS011;27625;50.422;7.944;2023-04-15T04:07:00;12.17;;;7.00;;
2031;SDS011;27625;50.422;7.944;2023-04-15T04:09:27;9.67;;;5.70;;
2031;SDS011;27625;50.422;7.944;2023-04-15T04:11:54;8.77;;;6.53;;
2031;SDS011;27625;50.422;7.944;2023-04-15T04:14:23;10.77;;;5.93;;
2031;SDS011;27625;50.422;7.944;2023-04-15T04:16:57;9.10;;;6.57;;
2031;SDS011;27625;50.422;7.944;2023-04-15T04:19:24;10.03;;;6.40;;
2031;SDS011;27625;50.422;7.944;2023-04-15T04:21:54;8.80;;;5.80;;
2031;SDS011;27625;50.422;7.944;2023-04-15T04:24:21;12.27;;;6.20;;
2031;SDS011;27625;50.422;7.944;2023-04-15T04:26:49;13.30;;;7.00;;
2031;SDS011;27625;50.422;7.944;2023-04-15T04:29:16;9.50;;;6.60;;
2031;SDS011;27625;50.422;7.944;2023-04-15T04:31:43;8.73;;;5.80;;
2031;SDS011;27625;50.422;7.944;2023-04-15T04:34:18;12.50;;;6.50;;
2031;SDS011;27625;50.422;7.944;2023-04-15T04:36:44;12.83;;;6.27;;
2031;SDS011;27625;50.422;7.944;2023-04-15T04:39:11;9.67;;;5.70;;
2031;SDS011;27625;50.422;7.944;2023-04-15T04:41:39;8.00;;;5.87;;
2031;SDS011;27625;50.422;7.944;2023-04-15T04:44:06;10.20;;;6.30;;
2031;SDS011;27625;50.422;7.944;2023-04-15T04:46:32;9.63;;;5.67;;
2031;SDS011;27625;50.422;7.944;2023-04-15T04:49:00;10.33;;;6.10;;
2031;SDS011;27625;50.422;7.944;2023-04-15T04:51:28;11.73;;;6.60;;
2031;SDS011;27625;50.422;7.944;2023-04-15T04:53:57;10.47;;;6.33;;
2031;SDS011;27625;50.422;7.944;2023-04-15T04:56:25;9.30;;;6.53;;
2031;SDS011;27625;50.422;7.944;2023-04-15T04:58:52;12.90;;;6.80;;
2031;SDS011;27625;50.422;7.944;2023-04-15T05:01:19;8.63;;;6.17;;
2031;SDS011;27625;50.422;7.944;2023-04-15T05:03:47;10.33;;;6.27;;
2031;SDS011;27625;50.422;7.944;2023-04-15T05:06:14;8.70;;;6.50;;
2031;SDS011;27625;50.422;7.944;2023-04-15T05:08:43;8.93;;;6.60;;
2031;SDS011;27625;50.422;7.944;2023-04-15T05:11:12;7.70;;;6.57;;
2031;SDS011;27625;50.422;7.944;2023-04-15T05:13:39;22.97;;;15.03;;
2031;SDS011;27625;50.422;7.944;2023-04-15T05:16:06;35.07;;;22.13;;
2031;SDS011;27625;50.422;7.944;2023-04-15T05:18:35;32.40;;;19.13;;
2031;SDS011;27625;50.422;7.944;2023-04-15T05:21:02;13.43;;;9.17;;
2031;SDS011;27625;50.422;7.944;2023-04-15T05:23:29;12.30;;;8.73;;
2031;SDS011;27625;50.422;7.944;2023-04-15T05:25:57;12.33;;;8.63;;
2031;SDS011;27625;50.422;7.944;2023-04-15T05:28:24;13.50;;;8.73;;
2031;SDS011;27625;50.422;7.944;2023-04-15T05:30:51;12.23;;;7.90;;
2031;SDS011;27625;50.422;7.944;2023-04-15T05:33:18;11.17;;;7.87;;
2031;SDS011;27625;50.422;7.944;2023-04-15T05:35:46;12.97;;;7.87;;
2031;SDS011;27625;50.422;7.944;2023-04-15T05:38:13;12.60;;;7.70;;
2031;SDS011;27625;50.422;7.944;2023-04-15T05:40:40;10.27;;;6.33;;
2031;SDS011;27625;50.422;7.944;2023-04-15T05:43:08;15.57;;;7.37;;
2031;SDS011;27625;50.422;7.944;2023-04-15T05:45:36;11.33;;;8.73;;
2031;SDS011;27625;50.422;7.944;2023-04-15T05:48:03;10.33;;;8.10;;
2031;SDS011;27625;50.422;7.944;2023-04-15T05:50:29;10.57;;;8.30;;
2031;SDS011;27625;50.422;7.944;2023-04-15T05:52:57;12.20;;;8.10;;
2031;SDS011;27625;50.422;7.944;2023-04-15T05:55:24;14.97;;;10.10;;
2031;SDS011;27625;50.422;7.944;2023-04-15T05:57:52;15.03;;;11.77;;
2031;SDS011;27625;50.422;7.944;2023-04-15T06:00:27;15.03;;;11.90;;
2031;SDS011;27625;50.422;7.944;2023-04-15T06:02:55;16.90;;;10.60;;
2031;SDS011;27625;50.422;7.944;2023-04-15T06:05:22;13.50;;;9.40;;
2031;SDS011;27625;50.422;7.944;2023-04-15T06:07:49;14.97;;;9.57;;
2031;SDS011;27625;50.422;7.944;2023-04-15T06:10:16;15.10;;;12.33;;
2031;SDS011;27625;50.422;7.944;2023-04-15T06:12:44;12.70;;;10.10;;
2031;SDS011;27625;50.422;7.944;2023-04-15T06:15:13;12.90;;;8.00;;
2031;SDS011;27625;50.422;7.944;2023-04-15T06:17:43;11.97;;;6.90;;
2031;SDS011;27625;50.422;7.944;2023-04-15T06:20:10;13.43;;;7.10;;
2031;SDS011;27625;50.422;7.944;2023-04-15T06:22:39;9.50;;;6.97;;
2031;SDS011;27625;50.422;7.944;2023-04-15T06:25:08;11.27;;;6.60;;
2031;SDS011;27625;50.422;7.944;2023-04-15T06:27:35;13.00;;;6.37;;
2031;SDS011;27625;50.422;7.944;2023-04-15T06:30:03;9.13;;;6.93;;
2031;SDS011;27625;50.422;7.944;2023-04-15T06:32:31;9.03;;;7.63;;
2031;SDS011;27625;50.422;7.944;2023-04-15T06:34:59;11.33;;;8.60;;
2031;SDS011;27625;50.422;7.944;2023-04-15T06:37:27;10.60;;;6.83;;
2031;SDS011;27625;50.422;7.944;2023-04-15T06:39:54;10.33;;;6.50;;
2031;SDS011;27625;50.422;7.944;2023-04-15T06:42:21;8.93;;;6.50;;
2031;SDS011;27625;50.422;7.944;2023-04-15T06:44:48;9.53;;;7.00;;
2031;SDS011;27625;50.422;7.944;2023-04-15T06:47:15;12.80;;;6.67;;
2031;SDS011;27625;50.422;7.944;2023-04-15T06:49:42;10.23;;;6.50;;
2031;SDS011;27625;50.422;7.944;2023-04-15T06:52:11;14.30;;;7.00;;
2031;SDS011;27625;50.422;7.944;2023-04-15T06:54:38;11.57;;;6.57;;
2031;SDS011;27625;50.422;7.944;2023-04-15T06:57:05;9.57;;;7.17;;
2031;SDS011;27625;50.422;7.944;2023-04-15T06:59:33;12.93;;;7.30;;
2031;SDS011;27625;50.422;7.944;2023-04-15T07:02:00;8.10;;;5.90;;
2031;SDS011;27625;50.422;7.944;2023-04-15T07:04:27;9.17;;;6.80;;
2031;SDS011;27625;50.422;7.944;2023-04-15T07:06:53;9.03;;;6.60;;
2031;SDS011;27625;50.422;7.944;2023-04-15T07:09:22;9.27;;;7.07;;
2031;SDS011;27625;50.422;7.944;2023-04-15T07:11:49;12.00;;;6.27;;
2031;SDS011;27625;50.422;7.944;2023-04-15T07:14:17;7.57;;;6.30;;
2031;SDS011;27625;50.422;7.944;2023-04-15T07:16:43;9.27;;;7.10;;
2031;SDS011;27625;50.422;7.944;2023-04-15T07:19:13;9.43;;;6.27;;
2031;SDS011;27625;50.422;7.944;2023-04-15T07:21:40;10.30;;;6.63;;
2031;SDS011;27625;50.422;7.944;2023-04-15T07:24:08;12.03;;;8.23;;
2031;SDS011;27625;50.422;7.944;2023-04-15T07:26:36;10.43;;;6.60;;
2031;SDS011;27625;50.422;7.944;2023-04-15T07:29:03;10.73;;;7.57;;
2031;SDS011;27625;50.422;7.944;2023-04-15T07:31:31;9.50;;;6.43;;
2031;SDS011;27625;50.422;7.944;2023-04-15T07:33:58;8.60;;;6.40;;
2031;SDS011;27625;50.422;7.944;2023-04-15T07:36:26;8.73;;;6.60;;
2031;SDS011;27625;50.422;7.944;2023-04-15T07:38:54;8.87;;;6.10;;
2031;SDS011;27625;50.422;7.944;2023-04-15T07:41:22;9.40;;;6.03;;
2031;SDS011;27625;50.422;7.944;2023-04-15T07:43:52;7.73;;;6.10;;
2031;SDS011;27625;50.422;7.944;2023-04-15T07:46:20;9.20;;;6.27;;
2031;SDS011;27625;50.422;7.944;2023-04-15T07:48:48;7.97;;;6.53;;
2031;SDS011;27625;50.422;7.944;2023-04-15T07:51:15;11.37;;;7.67;;
2031;SDS011;27625;50.422;7.944;2023-04-15T07:53:43;8.80;;;7.00;;
2031;SDS011;27625;50.422;7.944;2023-04-15T07:56:12;11.67;;;7.20;;
2031;SDS011;27625;50.422;7.944;2023-04-15T07:58:39;8.27;;;6.80;;
2031;SDS011;27625;50.422;7.944;2023-04-15T08:01:08;10.30;;;6.90;;
2031;SDS011;27625;50.422;7.944;2023-04-15T08:03:34;8.73;;;6.77;;
2031;SDS011;27625;50.422;7.944;2023-04-15T08:06:01;9.90;;;6.80;;
2031;SDS011;27625;50.422;7.944;2023-04-15T08:08:28;9.87;;;6.67;;
2031;SDS011;27625;50.422;7.944;2023-04-15T08:10:55;8.43;;;6.50;;
2031;SDS011;27625;50.422;7.944;2023-04-15T08:13:22;9.30;;;6.77;;
2031;SDS011;27625;50.422;7.944;2023-04-15T08:18:42;10.03;;;7.47;;
2031;SDS011;27625;50.422;7.944;2023-04-15T08:21:09;8.87;;;6.33;;
2031;SDS011;27625;50.422;7.944;2023-04-15T08:23:36;8.73;;;6.50;;
2031;SDS011;27625;50.422;7.944;2023-04-15T08:26:03;8.53;;;6.17;;
2031;SDS011;27625;50.422;7.944;2023-04-15T08:28:32;9.97;;;5.90;;
2031;SDS011;27625;50.422;7.944;2023-04-15T08:31:00;6.67;;;5.30;;
2031;SDS011;27625;50.422;7.944;2023-04-15T08:33:29;9.50;;;5.40;;
2031;SDS011;27625;50.422;7.944;2023-04-15T08:35:57;7.27;;;5.67;;
2031;SDS011;27625;50.422;7.944;2023-04-15T08:38:24;7.40;;;5.30;;
2031;SDS011;27625;50.422;7.944;2023-04-15T08:40:50;9.40;;;6.20;;
2031;SDS011;27625;50.422;7.944;2023-04-15T08:43:18;6.90;;;5.20;;
2031;SDS011;27625;50.422;7.944;2023-04-15T08:45:49;4.93;;;2.70;;
2031;SDS011;27625;50.422;7.944;2023-04-15T08:48:18;6.87;;;4.30;;
2031;SDS011;27625;50.422;7.944;2023-04-15T08:50:48;6.20;;;2.60;;
2031;SDS011;27625;50.422;7.944;2023-04-15T08:53:16;4.93;;;2.80;;
2031;SDS011;27625;50.422;7.944;2023-04-15T08:55:43;5.03;;;2.40;;
2031;SDS011;27625;50.422;7.944;2023-04-15T08:58:12;6.30;;;2.60;;
2031;SDS011;27625;50.422;7.944;2023-04-15T09:00:41;4.60;;;2.67;;
2031;SDS011;27625;50.422;7.944;2023-04-15T09:03:09;4.67;;;2.60;;
2031;SDS011;27625;50.422;7.944;2023-04-15T09:05:37;6.10;;;2.53;;
2031;SDS011;27625;50.422;7.944;2023-04-15T09:08:06;4.63;;;2.37;;
2031;SDS011;27625;50.422;7.944;2023-04-15T09:10:35;6.33;;;4.03;;
2031;SDS011;27625;50.422;7.944;2023-04-15T09:13:05;4.17;;;2.70;;
2031;SDS011;27625;50.422;7.944;2023-04-15T09:15:32;3.43;;;2.07;;
2031;SDS011;27625;50.422;7.944;2023-04-15T09:17:59;4.10;;;2.30;;
2031;SDS011;27625;50.422;7.944;2023-04-15T09:20:26;4.80;;;2.43;;
2031;SDS011;27625;50.422;7.944;2023-04-15T09:22:53;4.03;;;2.30;;
2031;SDS011;27625;50.422;7.944;2023-04-15T09:25:28;4.53;;;2.50;;
2031;SDS011;27625;50.422;7.944;2023-04-15T09:27:56;4.27;;;2.27;;
2031;SDS011;27625;50.422;7.944;2023-04-15T09:30:24;3.27;;;2.10;;
2031;SDS011;27625;50.422;7.944;2023-04-15T09:32:53;3.63;;;2.00;;
2031;SDS011;27625;50.422;7.944;2023-04-15T09:35:23;4.97;;;2.30;;
2031;SDS011;27625;50.422;7.944;2023-04-15T09:37:50;3.97;;;2.00;;
2031;SDS011;27625;50.422;7.944;2023-04-15T09:40:31;4.63;;;2.23;;
2031;SDS011;27625;50.422;7.944;2023-04-15T09:42:58;5.33;;;3.20;;
2031;SDS011;27625;50.422;7.944;2023-04-15T09:45:26;4.67;;;3.30;;
2031;SDS011;27625;50.422;7.944;2023-04-15T09:47:53;4.60;;;2.33;;
2031;SDS011;27625;50.422;7.944;2023-04-15T09:50:20;3.77;;;2.70;;
2031;SDS011;27625;50.422;7.944;2023-04-15T09:52:47;3.83;;;2.37;;
2031;SDS011;27625;50.422;7.944;2023-04-15T09:55:14;4.60;;;2.03;;
2031;SDS011;27625;50.422;7.944;2023-04-15T09:57:46;3.10;;;1.80;;
2031;SDS011;27625;50.422;7.944;2023-04-15T10:00:13;4.20;;;2.13;;
2031;SDS011;27625;50.422;7.944;2023-04-15T10:02:40;3.00;;;1.80;;
2031;SDS011;27625;50.422;7.944;2023-04-15T10:05:08;3.20;;;1.80;;
2031;SDS011;27625;50.422;7.944;2023-04-15T10:07:37;3.10;;;1.90;;
2031;SDS011;27625;50.422;7.944;2023-04-15T10:10:07;3.50;;;2.13;;
2031;SDS011;27625;50.422;7.944;2023-04-15T10:12:35;5.00;;;1.90;;
2031;SDS011;27625;50.422;7.944;2023-04-15T10:15:04;5.07;;;1.90;;
2031;SDS011;27625;50.422;7.944;2023-04-15T10:17:32;4.80;;;2.20;;
2031;SDS011;27625;50.422;7.944;2023-04-15T10:20:01;10.37;;;2.77;;
2031;SDS011;27625;50.422;7.944;2023-04-15T10:22:29;4.47;;;2.10;;
2031;SDS011;27625;50.422;7.944;2023-04-15T10:24:57;5.20;;;2.30;;
2031;SDS011;27625;50.422;7.944;2023-04-15T10:27:27;4.43;;;2.10;;
2031;SDS011;27625;50.422;7.944;2023-04-15T10:29:54;4.20;;;2.20;;
2031;SDS011;27625;50.422;7.944;2023-04-15T10:32:24;4.83;;;2.00;;
2031;SDS011;27625;50.422;7.944;2023-04-15T10:34:51;3.30;;;2.20;;
2031;SDS011;27625;50.422;7.944;2023-04-15T10:37:19;3.40;;;1.77;;
2031;SDS011;27625;50.422;7.944;2023-04-15T10:39:46;4.27;;;2.13;;
2031;SDS011;27625;50.422;7.944;2023-04-15T10:42:14;3.53;;;1.93;;
2031;SDS011;27625;50.422;7.944;2023-04-15T10:44:43;2.67;;;1.70;;
2031;SDS011;27625;50.422;7.944;2023-04-15T10:47:11;2.70;;;1.60;;
2031;SDS011;27625;50.422;7.944;2023-04-15T10:49:44;3.10;;;1.80;;
2031;SDS011;27625;50.422;7.944;2023-04-15T10:52:13;7.23;;;2.00;;
2031;SDS011;27625;50.422;7.944;2023-04-15T10:54:41;2.60;;;1.43;;
2031;SDS011;27625;50.422;7.944;2023-04-15T10:57:13;3.27;;;1.87;;
2031;SDS011;27625;50.422;7.944;2023-04-15T11:02:42;3.43;;;1.90;;
2031;SDS011;27625;50.422;7.944;2023-04-15T11:05:14;4.03;;;1.77;;
2031;SDS011;27625;50.422;7.944;2023-04-15T11:07:51;3.60;;;2.10;;
2031;SDS011;27625;50.422;7.944;2023-04-15T11:13:24;3.50;;;2.20;;
2031;SDS011;27625;50.422;7.944;2023-04-15T11:15:56;4.67;;;2.40;;
2031;SDS011;27625;50.422;7.944;2023-04-15T11:18:27;4.17;;;2.57;;
2031;SDS011;27625;50.422;7.944;2023-04-15T11:21:02;4.60;;;2.40;;
2031;SDS011;27625;50.422;7.944;2023-04-15T11:23:31;3.30;;;2.10;;
2031;SDS011;27625;50.422;7.944;2023-04-15T11:26:00;5.00;;;2.47;;
2031;SDS011;27625;50.422;7.944;2023-04-15T11:28:28;3.17;;;2.23;;
2031;SDS011;27625;50.422;7.944;2023-04-15T11:30:55;3.97;;;2.57;;
2031;SDS011;27625;50.422;7.944;2023-04-15T11:33:23;5.23;;;2.10;;
2031;SDS011;27625;50.422;7.944;2023-04-15T11:35:51;3.43;;;2.10;;
2031;SDS011;27625;50.422;7.944;2023-04-15T11:38:20;4.33;;;2.23;;
2031;SDS011;27625;50.422;7.944;2023-04-15T11:40:47;3.70;;;2.60;;
2031;SDS011;27625;50.422;7.944;2023-04-15T11:43:15;3.20;;;1.97;;
2031;SDS011;27625;50.422;7.944;2023-04-15T11:45:49;3.80;;;2.20;;
2031;SDS011;27625;50.422;7.944;2023-04-15T11:48:18;3.57;;;2.77;;
2031;SDS011;27625;50.422;7.944;2023-04-15T11:50:51;4.57;;;2.00;;
2031;SDS011;27625;50.422;7.944;2023-04-15T11:53:19;3.50;;;2.50;;
2031;SDS011;27625;50.422;7.944;2023-04-15T11:55:47;3.73;;;2.40;;
2031;SDS011;27625;50.422;7.944;2023-04-15T11:58:15;4.00;;;2.40;;
2031;SDS011;27625;50.422;7.944;2023-04-15T12:00:47;4.60;;;2.97;;
2031;SDS011;27625;50.422;7.944;2023-04-15T12:03:19;4.87;;;2.40;;
2031;SDS011;27625;50.422;7.944;2023-04-15T12:08:49;4.03;;;2.50;;
2031;SDS011;27625;50.422;7.944;2023-04-15T12:11:27;3.87;;;2.83;;
2031;SDS011;27625;50.422;7.944;2023-04-15T12:13:58;3.70;;;2.60;;
2031;SDS011;27625;50.422;7.944;2023-04-15T12:16:30;4.33;;;2.40;;
2031;SDS011;27625;50.422;7.944;2023-04-15T12:18:57;3.40;;;2.37;;
2031;SDS011;27625;50.422;7.944;2023-04-15T12:21:25;4.80;;;2.73;;
2031;SDS011;27625;50.422;7.944;2023-04-15T12:23:55;3.33;;;2.17;;
2031;SDS011;27625;50.422;7.944;2023-04-15T12:26:26;3.10;;;2.00;;
2031;SDS011;27625;50.422;7.944;2023-04-15T12:28:54;3.20;;;2.10;;
2031;SDS011;27625;50.422;7.944;2023-04-15T12:31:21;3.50;;;2.30;;
2031;SDS011;27625;50.422;7.944;2023-04-15T12:33:48;3.70;;;2.60;;
2031;SDS011;27625;50.422;7.944;2023-04-15T12:36:15;4.40;;;2.60;;
2031;SDS011;27625;50.422;7.944;2023-04-15T12:38:42;3.50;;;2.40;;
2031;SDS011;27625;50.422;7.944;2023-04-15T12:41:11;6.00;;;2.40;;
2031;SDS011;27625;50.422;7.944;2023-04-15T12:43:38;3.80;;;2.50;;
2031;SDS011;27625;50.422;7.944;2023-04-15T12:46:09;3.80;;;2.30;;
2031;SDS011;27625;50.422;7.944;2023-04-15T12:48:40;3.50;;;2.57;;
2031;SDS011;27625;50.422;7.944;2023-04-15T12:51:08;4.30;;;2.57;;
2031;SDS011;27625;50.422;7.944;2023-04-15T12:53:35;3.47;;;2.60;;
2031;SDS011;27625;50.422;7.944;2023-04-15T12:56:01;4.43;;;3.10;;
2031;SDS011;27625;50.422;7.944;2023-04-15T12:58:30;4.23;;;2.93;;
2031;SDS011;27625;50.422;7.944;2023-04-15T13:00:57;3.90;;;3.10;;
2031;SDS011;27625;50.422;7.944;2023-04-15T13:03:24;4.23;;;3.20;;
2031;SDS011;27625;50.422;7.944;2023-04-15T13:05:52;5.80;;;3.37;;
2031;SDS011;27625;50.422;7.944;2023-04-15T13:08:19;4.10;;;3.10;;
2031;SDS011;27625;50.422;7.944;2023-04-15T13:10:46;4.50;;;3.53;;
2031;SDS011;27625;50.422;7.944;2023-04-15T13:13:14;5.13;;;4.33;;
2031;SDS011;27625;50.422;7.944;2023-04-15T13:15:44;4.73;;;4.23;;
2031;SDS011;27625;50.422;7.944;2023-04-15T13:18:12;5.03;;;4.40;;
2031;SDS011;27625;50.422;7.944;2023-04-15T13:20:39;6.77;;;5.20;;
2031;SDS011;27625;50.422;7.944;2023-04-15T13:23:06;7.67;;;5.90;;
2031;SDS011;27625;50.422;7.944;2023-04-15T13:25:34;6.97;;;6.20;;
2031;SDS011;27625;50.422;7.944;2023-04-15T13:28:02;8.50;;;7.27;;
2031;SDS011;27625;50.422;7.944;2023-04-15T13:30:29;8.10;;;7.27;;
2031;SDS011;27625;50.422;7.944;2023-04-15T13:32:58;9.10;;;7.47;;
2031;SDS011;27625;50.422;7.944;2023-04-15T13:35:24;8.10;;;6.90;;
2031;SDS011;27625;50.422;7.944;2023-04-15T13:37:52;6.87;;;6.10;;
2031;SDS011;27625;50.422;7.944;2023-04-15T13:40:21;7.40;;;6.53;;
2031;SDS011;27625;50.422;7.944;2023-04-15T13:42:49;9.90;;;7.20;;
2031;SDS011;27625;50.422;7.944;2023-04-15T13:45:17;10.83;;;6.93;;
2031;SDS011;27625;50.422;7.944;2023-04-15T13:47:44;6.33;;;5.73;;
2031;SDS011;27625;50.422;7.944;2023-04-15T13:50:12;7.50;;;6.20;;
2031;SDS011;27625;50.422;7.944;2023-04-15T13:52:39;8.40;;;7.40;;
2031;SDS011;27625;50.422;7.944;2023-04-15T13:55:06;8.40;;;7.00;;
2031;SDS011;27625;50.422;7.944;2023-04-15T13:57:33;9.13;;;6.90;;
2031;SDS011;27625;50.422;7.944;2023-04-15T14:00:01;8.13;;;6.83;;
2031;SDS011;27625;50.422;7.944;2023-04-15T14:02:31;9.60;;;7.40;;
2031;SDS011;27625;50.422;7.944;2023-04-15T14:04:58;8.53;;;7.63;;
2031;SDS011;27625;50.422;7.944;2023-04-15T14:07:29;9.13;;;7.37;;
2031;SDS011;27625;50.422;7.944;2023-04-15T14:09:55;9.20;;;7.93;;
2031;SDS011;27625;50.422;7.944;2023-04-15T14:12:22;9.40;;;7.73;;
2031;SDS011;27625;50.422;7.944;2023-04-15T14:14:51;9.10;;;7.77;;
2031;SDS011;27625;50.422;7.944;2023-04-15T14:17:18;8.63;;;7.60;;
2031;SDS011;27625;50.422;7.944;2023-04-15T14:19:45;7.83;;;7.03;;
2031;SDS011;27625;50.422;7.944;2023-04-15T14:22:12;8.60;;;6.97;;
2031;SDS011;27625;50.422;7.944;2023-04-15T14:24:40;9.70;;;7.20;;
2031;SDS011;27625;50.422;7.944;2023-04-15T14:27:07;8.50;;;7.07;;
2031;SDS011;27625;50.422;7.944;2023-04-15T14:29:36;10.70;;;8.13;;
2031;SDS011;27625;50.422;7.944;2023-04-15T14:32:03;10.13;;;8.80;;
2031;SDS011;27625;50.422;7.944;2023-04-15T14:34:30;8.23;;;7.43;;
2031;SDS011;27625;50.422;7.944;2023-04-15T14:36:56;10.23;;;8.20;;
2031;SDS011;27625;50.422;7.944;2023-04-15T14:39:23;9.80;;;8.70;;
2031;SDS011;27625;50.422;7.944;2023-04-15T14:41:52;11.63;;;8.60;;
2031;SDS011;27625;50.422;7.944;2023-04-15T14:44:21;10.60;;;9.17;;
2031;SDS011;27625;50.422;7.944;2023-04-15T14:46:48;11.23;;;9.10;;
2031;SDS011;27625;50.422;7.944;2023-04-15T14:49:15;11.57;;;8.97;;
2031;SDS011;27625;50.422;7.944;2023-04-15T14:51:42;10.63;;;8.53;;
2031;SDS011;27625;50.422;7.944;2023-04-15T14:56:41;9.87;;;7.33;;
2031;SDS011;27625;50.422;7.944;2023-04-15T14:59:09;9.80;;;7.90;;
2031;SDS011;27625;50.422;7.944;2023-04-15T15:01:36;10.63;;;8.43;;
2031;SDS011;27625;50.422;7.944;2023-04-15T15:04:03;13.00;;;7.20;;
2031;SDS011;27625;50.422;7.944;2023-04-15T15:06:30;10.77;;;8.67;;
2031;SDS011;27625;50.422;7.944;2023-04-15T15:09:00;12.40;;;8.80;;
2031;SDS011;27625;50.422;7.944;2023-04-15T15:11:26;10.53;;;8.30;;
2031;SDS011;27625;50.422;7.944;2023-04-15T15:13:53;10.70;;;8.30;;
2031;SDS011;27625;50.422;7.944;2023-04-15T15:16:22;11.63;;;7.20;;
2031;SDS011;27625;50.422;7.944;2023-04-15T15:18:50;11.13;;;7.73;;
2031;SDS011;27625;50.422;7.944;2023-04-15T15:21:17;9.60;;;8.23;;